Time;durP1;ratioP1;P1;durP2;ratioP2;P2;SDS_P1;SDS_P2;PMS_P1;PMS_P2;Temp;Humidity;BMP_temperature;BMP_pressure;BME280_temperature;BME280_humidity;BME280_pressure;Samples;Min_cycle;Max_cycle;Signal;HPM_P1;HPM_P2
2021/04/28 00:00:33;;;;;;;3.93;3.53;;;;;;;;;;5087083;28;20782;-69
2021/04/28 00:03:03;;;;;;;7.17;4.10;;;;;;;;;;5087798;28;20173;-70
2021/04/28 00:05:29;;;;;;;4.13;3.67;;;;;;;;;;5087520;28;20662;-70
2021/04/28 00:07:54;;;;;;;5.07;4.20;;;;;;;;;;5092291;28;20539;-70
2021/04/28 00:10:21;;;;;;;4.07;3.67;;;;;;;;;;5091447;28;20176;-70
2021/04/28 00:12:47;;;;;;;8.57;4.63;;;;;;;;;;5088495;28;20271;-70
2021/04/28 00:15:16;;;;;;;5.43;3.90;;;;;;;;;;5089364;28;20191;-71
2021/04/28 00:17:42;;;;;;;6.70;4.27;;;;;;;;;;5088635;28;20180;-70
2021/04/28 00:20:08;;;;;;;6.60;4.00;;;;;;;;;;5079039;28;20324;-71
2021/04/28 00:22:33;;;;;;;5.23;3.97;;;;;;;;;;5088938;28;20279;-69
2021/04/28 00:24:59;;;;;;;10.10;4.10;;;;;;;;;;5087242;28;20314;-69
2021/04/28 00:27:24;;;;;;;5.10;3.67;;;;;;;;;;5084822;28;20208;-69
2021/04/28 00:29:49;;;;;;;5.03;4.13;;;;;;;;;;5078655;28;20180;-70
2021/04/28 00:32:14;;;;;;;5.90;4.13;;;;;;;;;;5082044;28;20266;-69
2021/04/28 00:34:40;;;;;;;6.53;4.30;;;;;;;;;;5086910;28;20184;-69
2021/04/28 00:37:05;;;;;;;16.73;5.10;;;;;;;;;;5086039;28;20227;-70
2021/04/28 00:39:30;;;;;;;4.50;3.60;;;;;;;;;;5091893;28;20225;-69
2021/04/28 00:41:56;;;;;;;4.60;3.87;;;;;;;;;;5084244;28;20620;-70
2021/04/28 00:44:21;;;;;;;7.67;3.90;;;;;;;;;;5082485;28;20188;-69
2021/04/28 00:46:46;;;;;;;7.50;4.63;;;;;;;;;;5081467;28;20658;-69
2021/04/28 00:49:11;;;;;;;4.97;3.87;;;;;;;;;;5081672;28;20179;-70
2021/04/28 00:51:37;;;;;;;3.77;3.47;;;;;;;;;;5079372;28;20279;-70
2021/04/28 00:54:02;;;;;;;4.10;3.70;;;;;;;;;;5091082;28;20208;-70
2021/04/28 00:56:27;;;;;;;4.03;3.63;;;;;;;;;;5081880;28;20185;-69
2021/04/28 00:58:53;;;;;;;7.53;4.27;;;;;;;;;;5087523;28;20543;-69
2021/04/28 01:01:18;;;;;;;5.30;4.63;;;;;;;;;;5081524;28;20500;-69
2021/04/28 01:03:43;;;;;;;5.13;4.43;;;;;;;;;;5079517;28;20184;-69
2021/04/28 01:06:08;;;;;;;5.70;4.03;;;;;;;;;;5078956;28;20193;-69
2021/04/28 01:08:34;;;;;;;5.37;3.93;;;;;;;;;;5078808;28;20219;-69
2021/04/28 01:11:00;;;;;;;4.70;3.70;;;;;;;;;;5080825;28;20292;-69
2021/04/28 01:13:25;;;;;;;5.37;3.40;;;;;;;;;;5082134;28;20653;-69
2021/04/28 01:15:51;;;;;;;4.77;3.63;;;;;;;;;;5082467;28;20196;-69
2021/04/28 01:18:17;;;;;;;6.23;3.90;;;;;;;;;;5083495;28;20184;-69
2021/04/28 01:20:42;;;;;;;10.50;4.43;;;;;;;;;;5080852;28;20208;-69
2021/04/28 01:23:08;;;;;;;4.23;3.43;;;;;;;;;;5083925;28;20196;-69
2021/04/28 01:25:33;;;;;;;6.43;3.53;;;;;;;;;;5087245;28;20703;-70
2021/04/28 01:28:05;;;;;;;5.60;4.20;;;;;;;;;;5081800;28;20179;-70
2021/04/28 01:30:41;;;;;;;7.17;4.20;;;;;;;;;;5091519;28;20188;-69
2021/04/28 01:33:09;;;;;;;6.33;3.83;;;;;;;;;;5083934;28;20184;-69
2021/04/28 01:35:35;;;;;;;6.07;4.30;;;;;;;;;;5084800;28;20226;-69
2021/04/28 01:38:01;;;;;;;7.20;4.17;;;;;;;;;;5082862;28;20184;-69
2021/04/28 01:40:26;;;;;;;6.47;4.10;;;;;;;;;;5089717;28;20204;-69
2021/04/28 01:42:52;;;;;;;8.00;4.47;;;;;;;;;;5082488;28;20223;-70
2021/04/28 01:45:18;;;;;;;8.63;3.90;;;;;;;;;;5083303;28;20658;-70
2021/04/28 01:47:43;;;;;;;6.87;3.83;;;;;;;;;;5080487;28;20718;-70
2021/04/28 01:50:09;;;;;;;7.53;3.77;;;;;;;;;;5073898;28;20645;-68
2021/04/28 01:52:35;;;;;;;4.80;4.13;;;;;;;;;;5081825;28;20277;-68
2021/04/28 01:55:00;;;;;;;4.53;3.90;;;;;;;;;;5086760;28;20670;-70
2021/04/28 01:57:26;;;;;;;6.30;3.97;;;;;;;;;;5080798;28;20180;-68
2021/04/28 01:59:51;;;;;;;5.17;4.00;;;;;;;;;;5082294;28;20513;-69
2021/04/28 02:02:17;;;;;;;8.03;5.20;;;;;;;;;;5078764;28;20212;-69
2021/04/28 02:04:43;;;;;;;8.03;4.07;;;;;;;;;;5090469;28;20604;-70
2021/04/28 02:07:08;;;;;;;5.07;3.93;;;;;;;;;;5082185;28;20262;-69
2021/04/28 02:09:33;;;;;;;7.90;4.13;;;;;;;;;;5083426;28;20259;-70
2021/04/28 02:11:58;;;;;;;5.37;4.03;;;;;;;;;;5081032;28;20227;-69
2021/04/28 02:14:24;;;;;;;5.97;3.53;;;;;;;;;;5087904;28;20267;-70
2021/04/28 02:16:50;;;;;;;7.10;4.13;;;;;;;;;;5075143;28;20731;-69
2021/04/28 02:19:17;;;;;;;5.47;4.20;;;;;;;;;;5082069;28;20179;-69
2021/04/28 02:21:43;;;;;;;5.63;3.50;;;;;;;;;;5078414;28;20223;-69
2021/04/28 02:24:10;;;;;;;8.23;3.90;;;;;;;;;;5081169;28;20562;-69
2021/04/28 02:26:35;;;;;;;4.23;3.60;;;;;;;;;;5085969;28;20188;-69
2021/04/28 02:29:01;;;;;;;5.00;4.00;;;;;;;;;;5084513;28;20173;-69
2021/04/28 02:31:26;;;;;;;4.10;3.40;;;;;;;;;;5072903;28;20209;-69
2021/04/28 02:33:51;;;;;;;5.57;3.77;;;;;;;;;;5083509;28;20586;-70
2021/04/28 02:36:17;;;;;;;5.33;3.77;;;;;;;;;;5080721;28;20196;-69
2021/04/28 02:39:03;;;;;;;4.70;4.10;;;;;;;;;;5083419;28;20199;-69
2021/04/28 02:41:28;;;;;;;6.10;4.00;;;;;;;;;;5077159;28;20235;-69
2021/04/28 02:43:54;;;;;;;5.33;4.13;;;;;;;;;;5079947;28;20207;-70
2021/04/28 02:46:20;;;;;;;7.03;4.00;;;;;;;;;;5088050;28;20255;-69
2021/04/28 02:48:47;;;;;;;5.63;4.30;;;;;;;;;;5087544;28;20172;-69
2021/04/28 02:51:12;;;;;;;6.63;5.00;;;;;;;;;;5080946;28;20204;-69
2021/04/28 02:53:40;;;;;;;4.97;4.43;;;;;;;;;;5083884;28;20173;-69
2021/04/28 02:56:06;;;;;;;6.33;4.30;;;;;;;;;;5079192;28;20177;-69
2021/04/28 02:58:31;;;;;;;5.83;4.30;;;;;;;;;;5082654;28;20190;-69
2021/04/28 03:00:57;;;;;;;8.90;5.23;;;;;;;;;;5080041;28;20214;-69
2021/04/28 03:03:22;;;;;;;6.40;4.33;;;;;;;;;;5089417;28;20225;-68
2021/04/28 03:05:50;;;;;;;6.40;4.60;;;;;;;;;;5082076;28;20204;-69
2021/04/28 03:08:16;;;;;;;11.83;4.67;;;;;;;;;;5090039;28;20263;-70
2021/04/28 03:10:41;;;;;;;7.87;4.50;;;;;;;;;;5090627;28;20276;-70
2021/04/28 03:13:06;;;;;;;5.50;4.57;;;;;;;;;;5080855;28;20257;-69
2021/04/28 03:15:31;;;;;;;8.80;5.40;;;;;;;;;;5076858;28;20230;-70
2021/04/28 03:17:57;;;;;;;9.83;4.87;;;;;;;;;;5082593;28;20176;-68
2021/04/28 03:20:22;;;;;;;4.93;4.30;;;;;;;;;;5080574;28;20213;-70
2021/04/28 03:22:48;;;;;;;8.73;4.60;;;;;;;;;;5088950;28;20196;-69
2021/04/28 03:25:13;;;;;;;10.67;5.17;;;;;;;;;;5084234;28;20230;-68
2021/04/28 03:27:39;;;;;;;6.27;4.27;;;;;;;;;;5088198;28;20532;-70
2021/04/28 03:30:05;;;;;;;5.63;4.23;;;;;;;;;;5084342;28;20169;-70
2021/04/28 03:32:30;;;;;;;11.80;5.17;;;;;;;;;;5082403;28;20196;-70
2021/04/28 03:34:56;;;;;;;5.93;4.33;;;;;;;;;;5088661;28;20226;-70
2021/04/28 03:37:21;;;;;;;7.60;4.13;;;;;;;;;;5080916;28;20176;-70
2021/04/28 03:39:46;;;;;;;6.10;4.60;;;;;;;;;;5082254;28;20188;-70
2021/04/28 03:42:11;;;;;;;4.97;4.03;;;;;;;;;;5086985;28;20212;-69
2021/04/28 03:44:37;;;;;;;11.10;4.33;;;;;;;;;;5083536;28;20180;-69
2021/04/28 03:47:03;;;;;;;6.13;4.63;;;;;;;;;;5086688;28;20176;-70
2021/04/28 03:49:28;;;;;;;6.00;4.60;;;;;;;;;;5079620;28;20233;-69
2021/04/28 03:51:53;;;;;;;9.17;4.67;;;;;;;;;;5082226;28;20283;-70
2021/04/28 03:54:19;;;;;;;7.67;4.63;;;;;;;;;;5081257;28;20307;-70
2021/04/28 03:56:44;;;;;;;7.87;5.10;;;;;;;;;;5087266;28;20192;-70
2021/04/28 03:59:10;;;;;;;7.20;5.03;;;;;;;;;;5082804;28;20194;-68
2021/04/28 04:01:35;;;;;;;5.87;4.73;;;;;;;;;;5085451;28;20219;-69
2021/04/28 04:04:00;;;;;;;8.70;4.77;;;;;;;;;;5079842;28;20169;-70
2021/04/28 04:06:25;;;;;;;6.17;4.50;;;;;;;;;;5084106;28;20184;-71
2021/04/28 04:08:51;;;;;;;7.63;4.63;;;;;;;;;;5085474;28;21305;-69
2021/04/28 04:11:16;;;;;;;6.97;4.37;;;;;;;;;;5081657;28;20195;-70
2021/04/28 04:13:41;;;;;;;7.87;5.27;;;;;;;;;;5084853;28;20243;-69
2021/04/28 04:16:06;;;;;;;8.23;4.70;;;;;;;;;;5088870;28;20186;-69
2021/04/28 04:18:32;;;;;;;5.33;4.47;;;;;;;;;;5082991;28;20181;-70
2021/04/28 04:20:57;;;;;;;5.00;4.37;;;;;;;;;;5085596;28;20209;-69
2021/04/28 04:23:23;;;;;;;6.30;4.47;;;;;;;;;;5090828;28;20643;-69
2021/04/28 04:25:48;;;;;;;6.50;4.60;;;;;;;;;;5087780;28;20168;-70
2021/04/28 04:28:13;;;;;;;10.17;5.10;;;;;;;;;;5082545;28;20555;-70
2021/04/28 04:30:38;;;;;;;11.23;5.40;;;;;;;;;;5086939;28;20270;-70
2021/04/28 04:33:04;;;;;;;8.93;5.30;;;;;;;;;;5085831;28;20174;-70
2021/04/28 04:35:29;;;;;;;7.53;4.30;;;;;;;;;;5086327;28;20211;-70
2021/04/28 04:37:54;;;;;;;10.73;4.50;;;;;;;;;;5080972;28;20204;-70
2021/04/28 04:40:19;;;;;;;10.20;4.60;;;;;;;;;;5084893;28;20200;-69
2021/04/28 04:42:44;;;;;;;6.03;5.17;;;;;;;;;;5083553;28;20207;-70
2021/04/28 04:45:10;;;;;;;7.33;4.77;;;;;;;;;;5088805;28;20600;-69
2021/04/28 04:47:36;;;;;;;5.33;4.33;;;;;;;;;;5085058;28;20249;-70
2021/04/28 04:50:01;;;;;;;7.20;4.70;;;;;;;;;;5083880;28;20624;-70
2021/04/28 04:52:26;;;;;;;8.37;4.57;;;;;;;;;;5083591;28;20203;-69
2021/04/28 04:54:51;;;;;;;8.03;5.20;;;;;;;;;;5085518;28;20185;-70
2021/04/28 04:57:16;;;;;;;7.60;4.80;;;;;;;;;;5083133;28;20167;-70
2021/04/28 04:59:42;;;;;;;7.83;4.53;;;;;;;;;;5078463;28;20231;-69
2021/04/28 05:02:07;;;;;;;18.67;4.50;;;;;;;;;;5082662;28;20208;-70
2021/04/28 05:04:32;;;;;;;10.00;5.23;;;;;;;;;;5082543;28;20225;-69
2021/04/28 05:06:57;;;;;;;7.80;4.40;;;;;;;;;;5086161;28;20173;-69
2021/04/28 05:09:23;;;;;;;7.07;5.17;;;;;;;;;;5084127;28;20255;-69
2021/04/28 05:11:48;;;;;;;7.97;4.60;;;;;;;;;;5079939;28;20299;-69
2021/04/28 05:14:13;;;;;;;6.83;4.40;;;;;;;;;;5084995;28;20329;-69
2021/04/28 05:16:38;;;;;;;7.63;5.40;;;;;;;;;;5079666;28;20180;-69
2021/04/28 05:19:03;;;;;;;7.03;4.90;;;;;;;;;;5084227;28;20221;-70
2021/04/28 05:21:29;;;;;;;8.17;4.87;;;;;;;;;;5085243;28;20657;-69
2021/04/28 05:23:54;;;;;;;8.07;5.67;;;;;;;;;;5081033;28;20621;-70
2021/04/28 05:26:19;;;;;;;6.47;5.07;;;;;;;;;;5081247;28;20559;-70
2021/04/28 05:28:44;;;;;;;8.10;5.03;;;;;;;;;;5080858;28;20177;-69
2021/04/28 05:31:09;;;;;;;9.83;5.03;;;;;;;;;;5079986;28;20678;-70
2021/04/28 05:33:36;;;;;;;5.37;4.03;;;;;;;;;;5076184;28;20642;-70
2021/04/28 05:36:01;;;;;;;5.10;4.60;;;;;;;;;;5085611;28;20294;-69
2021/04/28 05:38:26;;;;;;;6.50;5.13;;;;;;;;;;5081733;28;20309;-70
2021/04/28 05:40:51;;;;;;;5.67;4.70;;;;;;;;;;5083945;28;20218;-70
2021/04/28 05:43:18;;;;;;;7.40;5.40;;;;;;;;;;5092692;28;20192;-70
2021/04/28 05:45:43;;;;;;;6.60;4.60;;;;;;;;;;5088982;28;20263;-70
2021/04/28 05:48:10;;;;;;;5.00;4.53;;;;;;;;;;5086027;28;20256;-70
2021/04/28 05:50:35;;;;;;;6.40;4.83;;;;;;;;;;5086431;28;20176;-70
2021/04/28 05:53:00;;;;;;;6.97;4.83;;;;;;;;;;5076373;28;20685;-70
2021/04/28 05:55:25;;;;;;;7.17;5.27;;;;;;;;;;5082114;28;20565;-70
2021/04/28 05:57:50;;;;;;;7.00;6.10;;;;;;;;;;5081902;28;20191;-70
2021/04/28 06:00:16;;;;;;;8.93;5.47;;;;;;;;;;5086839;28;20238;-70
2021/04/28 06:02:44;;;;;;;10.90;5.20;;;;;;;;;;5089669;28;20196;-70
2021/04/28 06:05:09;;;;;;;10.03;6.43;;;;;;;;;;5082754;28;20657;-70
2021/04/28 06:07:35;;;;;;;7.43;4.67;;;;;;;;;;5087040;28;20181;-70
2021/04/28 06:10:00;;;;;;;6.90;5.20;;;;;;;;;;5081683;28;20184;-68
2021/04/28 06:12:25;;;;;;;10.67;6.27;;;;;;;;;;5080282;28;20288;-69
2021/04/28 06:14:50;;;;;;;10.33;5.37;;;;;;;;;;5080222;28;20177;-69
2021/04/28 06:17:16;;;;;;;8.67;5.20;;;;;;;;;;5084737;28;20195;-70
2021/04/28 06:19:41;;;;;;;9.60;6.33;;;;;;;;;;5082537;28;20551;-70
2021/04/28 06:22:06;;;;;;;8.70;5.53;;;;;;;;;;5082928;28;20209;-70
2021/04/28 06:24:31;;;;;;;9.37;5.50;;;;;;;;;;5085272;28;20246;-70
2021/04/28 06:26:57;;;;;;;7.43;5.27;;;;;;;;;;5088072;28;20252;-70
2021/04/28 06:29:22;;;;;;;9.33;5.07;;;;;;;;;;5082586;28;20559;-70
2021/04/28 06:31:47;;;;;;;6.60;5.53;;;;;;;;;;5088146;28;20208;-70
2021/04/28 06:34:12;;;;;;;6.57;5.30;;;;;;;;;;5082675;28;20206;-68
2021/04/28 06:36:38;;;;;;;13.77;5.90;;;;;;;;;;5087300;28;20176;-70
2021/04/28 06:39:03;;;;;;;8.97;5.30;;;;;;;;;;5088860;28;20177;-70
2021/04/28 06:41:29;;;;;;;6.27;4.97;;;;;;;;;;5088287;28;20275;-70
2021/04/28 06:43:54;;;;;;;12.63;6.70;;;;;;;;;;5078299;28;20552;-70
2021/04/28 06:46:19;;;;;;;9.03;5.00;;;;;;;;;;5088142;28;20543;-71
2021/04/28 06:48:44;;;;;;;6.60;5.30;;;;;;;;;;5088690;28;20222;-70
2021/04/28 06:51:10;;;;;;;7.27;5.77;;;;;;;;;;5080281;28;20234;-69
2021/04/28 06:53:35;;;;;;;6.00;5.40;;;;;;;;;;5083621;28;20177;-70
2021/04/28 06:56:01;;;;;;;9.90;5.60;;;;;;;;;;5073561;28;20179;-69
2021/04/28 06:58:28;;;;;;;8.07;5.40;;;;;;;;;;5080197;28;20180;-70
2021/04/28 07:00:53;;;;;;;9.57;6.07;;;;;;;;;;5075812;28;20200;-70
2021/04/28 07:03:18;;;;;;;7.17;5.70;;;;;;;;;;5076059;28;20181;-70
2021/04/28 07:05:44;;;;;;;7.80;5.17;;;;;;;;;;5075891;28;20173;-70
2021/04/28 07:08:09;;;;;;;8.87;5.57;;;;;;;;;;5080783;28;20211;-70
2021/04/28 07:10:34;;;;;;;10.50;5.90;;;;;;;;;;5084430;28;20313;-70
2021/04/28 07:12:59;;;;;;;9.13;6.10;;;;;;;;;;5075896;28;20635;-70
2021/04/28 07:15:25;;;;;;;9.97;6.03;;;;;;;;;;5080774;28;20176;-70
2021/04/28 07:17:52;;;;;;;11.60;6.30;;;;;;;;;;5080461;28;20394;-70
2021/04/28 07:20:17;;;;;;;8.20;5.27;;;;;;;;;;5080925;28;20222;-70
2021/04/28 07:22:42;;;;;;;7.47;5.83;;;;;;;;;;5079200;28;20624;-70
2021/04/28 07:25:08;;;;;;;6.33;5.73;;;;;;;;;;5085462;28;20690;-70
2021/04/28 07:27:33;;;;;;;9.53;6.30;;;;;;;;;;5075797;28;20230;-70
2021/04/28 07:29:59;;;;;;;9.53;5.70;;;;;;;;;;5082701;28;20169;-70
2021/04/28 07:32:24;;;;;;;7.97;5.47;;;;;;;;;;5083942;28;20285;-70
2021/04/28 07:34:49;;;;;;;9.27;6.13;;;;;;;;;;5086629;28;20270;-70
2021/04/28 07:37:15;;;;;;;8.60;6.57;;;;;;;;;;5083395;28;20180;-69
2021/04/28 07:39:40;;;;;;;9.20;6.23;;;;;;;;;;5082363;28;20282;-70
2021/04/28 07:42:05;;;;;;;12.53;6.17;;;;;;;;;;5082474;28;20211;-70
2021/04/28 07:44:31;;;;;;;12.50;6.47;;;;;;;;;;5078970;28;20181;-70
2021/04/28 07:47:00;;;;;;;6.83;6.07;;;;;;;;;;5090200;28;20183;-70
2021/04/28 07:49:25;;;;;;;6.43;5.80;;;;;;;;;;5082192;28;20176;-71
2021/04/28 07:51:51;;;;;;;8.07;6.10;;;;;;;;;;5083200;28;20350;-71
2021/04/28 07:54:16;;;;;;;7.17;6.47;;;;;;;;;;5083685;28;20180;-70
2021/04/28 07:56:42;;;;;;;9.63;6.40;;;;;;;;;;5082973;28;20195;-70
2021/04/28 07:59:07;;;;;;;10.38;6.40;;;;;;;;;;5089754;28;20195;-69
2021/04/28 08:01:32;;;;;;;8.70;5.90;;;;;;;;;;5083849;28;20682;-70
2021/04/28 08:03:58;;;;;;;8.13;6.30;;;;;;;;;;5083866;28;20169;-71
2021/04/28 08:06:23;;;;;;;10.32;7.47;;;;;;;;;;5080117;28;20176;-71
2021/04/28 08:08:49;;;;;;;10.23;6.45;;;;;;;;;;5083052;28;20184;-71
2021/04/28 08:11:14;;;;;;;8.68;6.25;;;;;;;;;;5082566;28;20196;-71
2021/04/28 08:13:39;;;;;;;14.38;7.30;;;;;;;;;;5086178;28;20189;-70
2021/04/28 08:16:06;;;;;;;9.55;6.47;;;;;;;;;;5087235;28;20185;-70
2021/04/28 08:18:31;;;;;;;8.88;7.00;;;;;;;;;;5085747;28;20180;-70
2021/04/28 08:20:56;;;;;;;11.02;7.47;;;;;;;;;;5082146;28;20228;-71
2021/04/28 08:23:25;;;;;;;9.23;6.93;;;;;;;;;;5082045;28;20237;-71
2021/04/28 08:25:50;;;;;;;9.07;7.00;;;;;;;;;;5078332;28;20169;-71
2021/04/28 08:28:15;;;;;;;10.38;6.07;;;;;;;;;;5087530;28;20238;-69
2021/04/28 08:30:41;;;;;;;10.53;7.60;;;;;;;;;;5080509;28;20535;-71
2021/04/28 08:33:06;;;;;;;9.27;6.47;;;;;;;;;;5086065;28;20421;-71
2021/04/28 08:35:31;;;;;;;7.57;6.78;;;;;;;;;;5084440;28;20644;-70
2021/04/28 08:37:57;;;;;;;10.57;7.18;;;;;;;;;;5085238;28;20544;-71
2021/04/28 08:40:22;;;;;;;8.88;7.15;;;;;;;;;;5084534;28;20653;-70
2021/04/28 08:42:47;;;;;;;7.70;6.13;;;;;;;;;;5083009;28;20203;-71
2021/04/28 08:45:13;;;;;;;13.15;7.05;;;;;;;;;;5083073;28;20180;-71
2021/04/28 08:47:39;;;;;;;7.35;6.30;;;;;;;;;;5093229;28;20172;-70
2021/04/28 08:50:04;;;;;;;12.00;7.13;;;;;;;;;;5085638;28;20173;-71
2021/04/28 08:52:32;;;;;;;13.35;7.30;;;;;;;;;;5087034;28;20193;-70
2021/04/28 08:54:57;;;;;;;7.65;6.70;;;;;;;;;;5088213;28;20177;-70
2021/04/28 08:57:22;;;;;;;12.00;7.20;;;;;;;;;;5082367;28;20191;-71
2021/04/28 08:59:49;;;;;;;9.80;7.80;;;;;;;;;;5083146;28;20523;-70
2021/04/28 09:02:22;;;;;;;10.55;7.13;;;;;;;;;;5092665;28;20673;-71
2021/04/28 09:05:06;;;;;;;7.97;7.00;;;;;;;;;;5088763;28;20196;-70
2021/04/28 09:07:31;;;;;;;11.32;7.22;;;;;;;;;;5089725;28;20173;-70
2021/04/28 09:10:09;;;;;;;7.80;6.97;;;;;;;;;;5087463;28;20173;-70
2021/04/28 09:12:35;;;;;;;8.93;7.32;;;;;;;;;;5084751;28;20200;-71
2021/04/28 09:15:00;;;;;;;8.27;6.88;;;;;;;;;;5086523;28;20620;-71
2021/04/28 09:17:25;;;;;;;7.93;7.00;;;;;;;;;;5087453;28;20246;-71
2021/04/28 09:20:10;;;;;;;10.35;6.95;;;;;;;;;;5076841;28;20927;-71
2021/04/28 09:22:35;;;;;;;10.85;7.82;;;;;;;;;;5084298;28;20294;-70
2021/04/28 09:25:01;;;;;;;6.57;5.97;;;;;;;;;;5080861;28;20283;-70
2021/04/28 09:27:27;;;;;;;9.88;7.53;;;;;;;;;;5082233;28;20557;-71
2021/04/28 09:29:53;;;;;;;9.23;7.13;;;;;;;;;;5078436;28;20233;-71
2021/04/28 09:32:18;;;;;;;7.78;6.70;;;;;;;;;;5078108;28;20607;-71
2021/04/28 09:34:44;;;;;;;13.25;8.25;;;;;;;;;;5079294;28;20188;-70
2021/04/28 09:37:11;;;;;;;11.93;7.25;;;;;;;;;;5082586;28;20271;-71
2021/04/28 09:39:40;;;;;;;8.85;7.07;;;;;;;;;;5082570;28;20168;-71
2021/04/28 09:42:06;;;;;;;7.50;6.75;;;;;;;;;;5082426;28;20310;-70
2021/04/28 09:44:32;;;;;;;7.28;6.45;;;;;;;;;;5083164;28;20192;-70
2021/04/28 09:47:00;;;;;;;10.02;7.05;;;;;;;;;;5082752;28;20752;-70
2021/04/28 09:49:26;;;;;;;9.50;6.70;;;;;;;;;;5075355;28;20172;-71
2021/04/28 09:51:56;;;;;;;10.52;6.82;;;;;;;;;;5085594;28;20208;-71
2021/04/28 09:54:28;;;;;;;8.00;6.82;;;;;;;;;;5079713;28;20180;-70
2021/04/28 09:56:53;;;;;;;10.13;6.72;;;;;;;;;;5099853;28;20281;-71
2021/04/28 09:59:18;;;;;;;8.82;7.70;;;;;;;;;;5078365;28;20267;-70
2021/04/28 10:01:44;;;;;;;7.27;6.57;;;;;;;;;;5076657;28;20209;-70
2021/04/28 10:04:09;;;;;;;8.45;7.13;;;;;;;;;;5076953;28;20422;-70
2021/04/28 10:06:41;;;;;;;7.90;6.70;;;;;;;;;;5086349;28;20543;-71
2021/04/28 10:09:25;;;;;;;9.38;7.20;;;;;;;;;;5088757;28;20201;-71
2021/04/28 10:11:50;;;;;;;11.80;7.25;;;;;;;;;;5081748;28;20578;-70
2021/04/28 10:14:15;;;;;;;7.90;7.10;;;;;;;;;;5085851;28;20180;-70
2021/04/28 10:16:41;;;;;;;10.70;7.30;;;;;;;;;;5081271;28;20176;-71
2021/04/28 10:19:06;;;;;;;11.20;7.47;;;;;;;;;;5085471;28;20192;-71
2021/04/28 10:21:31;;;;;;;7.97;6.93;;;;;;;;;;5081574;28;20401;-70
2021/04/28 10:23:57;;;;;;;8.55;7.05;;;;;;;;;;5080798;28;20534;-70
2021/04/28 10:26:22;;;;;;;11.77;7.38;;;;;;;;;;5078073;28;20200;-71
2021/04/28 10:28:47;;;;;;;9.20;7.07;;;;;;;;;;5073871;28;20328;-70
2021/04/28 10:31:13;;;;;;;12.43;8.27;;;;;;;;;;5087711;28;20223;-70
2021/04/28 10:33:39;;;;;;;10.90;7.57;;;;;;;;;;5072899;28;20183;-70
2021/04/28 10:36:05;;;;;;;12.60;7.57;;;;;;;;;;5087752;28;20189;-70
2021/04/28 10:38:31;;;;;;;11.55;8.93;;;;;;;;;;5083799;28;20246;-70
2021/04/28 10:40:56;;;;;;;8.82;7.65;;;;;;;;;;5081652;28;20628;-70
2021/04/28 10:43:32;;;;;;;10.93;7.78;;;;;;;;;;5082830;28;20208;-70
2021/04/28 10:46:15;;;;;;;17.80;8.50;;;;;;;;;;5081391;28;20173;-70
2021/04/28 10:48:41;;;;;;;8.85;7.95;;;;;;;;;;5081194;28;20172;-70
2021/04/28 10:51:06;;;;;;;9.07;7.38;;;;;;;;;;5081722;28;20202;-70
2021/04/28 10:53:31;;;;;;;11.38;7.32;;;;;;;;;;5081245;28;20187;-70
2021/04/28 10:55:57;;;;;;;7.97;7.27;;;;;;;;;;5072338;28;20174;-70
2021/04/28 10:58:26;;;;;;;11.18;7.78;;;;;;;;;;5082051;28;20859;-70
2021/04/28 11:01:04;;;;;;;9.90;7.32;;;;;;;;;;5087252;28;20261;-70
2021/04/28 11:03:29;;;;;;;8.70;7.68;;;;;;;;;;5082994;28;20172;-70
2021/04/28 11:05:55;;;;;;;12.33;7.93;;;;;;;;;;5086159;28;20179;-70
2021/04/28 11:08:28;;;;;;;10.00;8.00;;;;;;;;;;5085338;28;20449;-70
2021/04/28 11:10:53;;;;;;;10.45;8.43;;;;;;;;;;5085543;28;20287;-70
2021/04/28 11:13:19;;;;;;;10.10;8.03;;;;;;;;;;5083494;28;20256;-70
2021/04/28 11:15:46;;;;;;;11.45;8.00;;;;;;;;;;5081551;28;20437;-71
2021/04/28 11:18:30;;;;;;;10.15;7.57;;;;;;;;;;5078111;28;20260;-70
2021/04/28 11:21:10;;;;;;;8.82;7.93;;;;;;;;;;5081003;28;20217;-70
2021/04/28 11:23:35;;;;;;;9.02;8.15;;;;;;;;;;5082557;28;20177;-70
2021/04/28 11:26:19;;;;;;;9.13;7.43;;;;;;;;;;5084848;28;20183;-69
2021/04/28 11:28:48;;;;;;;11.70;7.65;;;;;;;;;;5086494;28;20422;-69
2021/04/28 11:31:21;;;;;;;11.05;8.90;;;;;;;;;;5088336;28;20214;-70
2021/04/28 11:33:46;;;;;;;7.93;7.15;;;;;;;;;;5076758;28;20207;-69
2021/04/28 11:36:14;;;;;;;8.77;7.97;;;;;;;;;;5090535;28;20657;-70
2021/04/28 11:38:43;;;;;;;12.27;8.65;;;;;;;;;;5086258;28;20206;-72
2021/04/28 11:41:15;;;;;;;9.95;7.80;;;;;;;;;;5084001;28;20366;-70
2021/04/28 11:43:42;;;;;;;8.75;7.88;;;;;;;;;;5081121;28;20187;-70
2021/04/28 11:46:07;;;;;;;8.98;8.07;;;;;;;;;;5088437;28;20202;-70
2021/04/28 11:48:33;;;;;;;15.18;8.32;;;;;;;;;;5085310;28;20180;-69
2021/04/28 11:51:00;;;;;;;13.30;9.38;;;;;;;;;;5077957;28;20703;-70
2021/04/28 11:53:25;;;;;;;12.10;8.35;;;;;;;;;;5080356;28;20172;-70
2021/04/28 11:55:51;;;;;;;9.27;8.38;;;;;;;;;;5081415;28;20703;-70
2021/04/28 11:58:19;;;;;;;9.30;8.30;;;;;;;;;;5085195;28;20542;-70
2021/04/28 12:00:45;;;;;;;11.93;8.25;;;;;;;;;;5081004;28;20196;-71
2021/04/28 12:03:10;;;;;;;10.93;8.98;;;;;;;;;;5082557;28;20183;-71
2021/04/28 12:05:35;;;;;;;9.47;8.53;;;;;;;;;;5083809;28;20203;-69
2021/04/28 12:08:03;;;;;;;11.40;9.33;;;;;;;;;;5087288;28;20401;-70
2021/04/28 12:10:28;;;;;;;12.48;9.57;;;;;;;;;;5089369;28;20417;-69
2021/04/28 12:12:53;;;;;;;9.30;8.50;;;;;;;;;;5090434;28;20200;-69
2021/04/28 12:15:19;;;;;;;10.75;9.50;;;;;;;;;;5088152;28;20693;-69
2021/04/28 12:17:48;;;;;;;11.20;9.20;;;;;;;;;;5085457;28;20187;-68
2021/04/28 12:20:14;;;;;;;11.98;9.32;;;;;;;;;;5084049;28;20716;-69
2021/04/28 12:22:40;;;;;;;10.63;9.52;;;;;;;;;;5085729;28;20697;-69
2021/04/28 12:25:06;;;;;;;11.30;8.38;;;;;;;;;;5087560;28;20191;-68
2021/04/28 12:27:32;;;;;;;14.73;10.02;;;;;;;;;;5086066;28;20653;-69
2021/04/28 12:30:03;;;;;;;11.15;9.93;;;;;;;;;;5083740;28;20234;-69
2021/04/28 12:32:29;;;;;;;12.88;9.43;;;;;;;;;;5084286;28;20442;-69
2021/04/28 12:35:06;;;;;;;11.95;9.32;;;;;;;;;;5081943;28;20685;-69
2021/04/28 12:37:32;;;;;;;12.77;9.73;;;;;;;;;;5075946;28;20598;-68
2021/04/28 12:39:58;;;;;;;12.30;9.57;;;;;;;;;;5087439;28;20176;-70
2021/04/28 12:42:25;;;;;;;11.70;10.02;;;;;;;;;;5090168;28;21081;-69
2021/04/28 12:44:51;;;;;;;11.68;10.02;;;;;;;;;;5084101;28;21500;-70
2021/04/28 12:47:16;;;;;;;11.52;10.30;;;;;;;;;;5082313;28;20185;-69
2021/04/28 12:49:41;;;;;;;11.20;10.20;;;;;;;;;;5085262;28;20181;-70
2021/04/28 12:52:14;;;;;;;11.82;10.32;;;;;;;;;;5081198;28;20262;-69
2021/04/28 12:54:39;;;;;;;10.60;9.50;;;;;;;;;;5084485;28;20547;-70
2021/04/28 12:57:16;;;;;;;11.00;9.77;;;;;;;;;;5083793;28;20184;-69
2021/04/28 12:59:44;;;;;;;12.98;10.13;;;;;;;;;;5082104;28;20425;-70
2021/04/28 13:02:15;;;;;;;11.00;9.63;;;;;;;;;;5085160;28;20201;-69
2021/04/28 13:04:46;;;;;;;12.18;8.65;;;;;;;;;;5081469;28;20670;-68
2021/04/28 13:07:22;;;;;;;12.27;9.45;;;;;;;;;;5077756;28;20191;-69
2021/04/28 13:09:47;;;;;;;12.90;9.00;;;;;;;;;;5080694;28;20225;-68
2021/04/28 13:12:31;;;;;;;10.33;9.20;;;;;;;;;;5083438;28;20199;-69
2021/04/28 13:14:57;;;;;;;13.05;9.15;;;;;;;;;;5083262;28;20404;-69
2021/04/28 13:17:22;;;;;;;13.38;11.35;;;;;;;;;;5084219;28;20185;-69
2021/04/28 13:19:47;;;;;;;11.73;10.37;;;;;;;;;;5088826;28;20180;-70
2021/04/28 13:22:18;;;;;;;11.90;10.68;;;;;;;;;;5082144;28;20465;-69
2021/04/28 13:24:47;;;;;;;14.95;10.90;;;;;;;;;;5084296;28;20192;-70
2021/04/28 13:27:16;;;;;;;11.15;10.05;;;;;;;;;;5087053;28;20189;-69
2021/04/28 13:29:51;;;;;;;10.85;9.55;;;;;;;;;;5080193;28;20175;-70
2021/04/28 13:32:32;;;;;;;10.25;9.35;;;;;;;;;;5081234;28;20203;-70
2021/04/28 13:35:10;;;;;;;14.77;10.43;;;;;;;;;;5078728;28;20547;-69
2021/04/28 13:37:35;;;;;;;14.73;9.52;;;;;;;;;;5085087;28;20233;-68
2021/04/28 13:40:12;;;;;;;12.50;10.00;;;;;;;;;;5082034;28;20172;-69
2021/04/28 13:42:37;;;;;;;12.38;8.98;;;;;;;;;;5082534;28;20223;-68
2021/04/28 13:45:03;;;;;;;13.43;9.73;;;;;;;;;;5077426;28;20228;-69
2021/04/28 13:47:28;;;;;;;13.68;9.52;;;;;;;;;;5086785;28;20923;-69
2021/04/28 13:49:53;;;;;;;13.17;9.57;;;;;;;;;;5078591;28;20177;-70
2021/04/28 13:52:18;;;;;;;10.50;9.60;;;;;;;;;;5086023;28;20208;-70
2021/04/28 13:54:43;;;;;;;13.03;9.57;;;;;;;;;;5086345;28;20436;-68
2021/04/28 13:57:09;;;;;;;14.70;9.57;;;;;;;;;;5079343;28;20981;-69
2021/04/28 13:59:34;;;;;;;10.63;9.00;;;;;;;;;;5085040;28;20428;-69
2021/04/28 14:02:00;;;;;;;13.57;8.80;;;;;;;;;;5079818;28;20214;-69
2021/04/28 14:04:25;;;;;;;11.50;9.17;;;;;;;;;;5076314;28;20800;-68
2021/04/28 14:06:50;;;;;;;14.05;9.27;;;;;;;;;;5083337;28;20421;-70
2021/04/28 14:09:16;;;;;;;10.38;8.80;;;;;;;;;;5080941;28;20184;-70
2021/04/28 14:11:44;;;;;;;10.60;9.50;;;;;;;;;;5079917;28;20260;-69
2021/04/28 14:14:10;;;;;;;11.70;9.68;;;;;;;;;;5079467;28;20577;-69
2021/04/28 14:16:35;;;;;;;11.02;9.30;;;;;;;;;;5084469;28;20240;-69
2021/04/28 14:19:00;;;;;;;10.70;8.98;;;;;;;;;;5081837;28;20259;-68
2021/04/28 14:21:25;;;;;;;16.17;10.00;;;;;;;;;;5088516;28;20708;-70
2021/04/28 14:23:51;;;;;;;10.68;8.60;;;;;;;;;;5082668;28;20406;-69
2021/04/28 14:26:17;;;;;;;15.65;9.63;;;;;;;;;;5082895;28;20204;-70
2021/04/28 14:28:42;;;;;;;10.10;9.20;;;;;;;;;;5083114;28;20172;-70
2021/04/28 14:31:07;;;;;;;10.20;8.93;;;;;;;;;;5074618;28;20196;-69
2021/04/28 14:33:32;;;;;;;12.60;9.53;;;;;;;;;;5074238;28;20536;-69